sensor_id;sensor_type;location;lat;lon;timestamp;P1;durP1;ratioP1;P2;durP2;ratioP2
34369;SDS011;20635;55.812;37.560;2022-12-10T00:00:54;7.00;;;4.93;;
34369;SDS011;20635;55.812;37.560;2022-12-10T00:03:20;5.55;;;4.25;;
34369;SDS011;20635;55.812;37.560;2022-12-10T00:05:46;5.38;;;4.20;;
34369;SDS011;20635;55.812;37.560;2022-12-10T00:08:12;6.28;;;4.38;;
34369;SDS011;20635;55.812;37.560;2022-12-10T00:10:41;6.10;;;4.40;;
34369;SDS011;20635;55.812;37.560;2022-12-10T00:13:06;6.97;;;4.78;;
34369;SDS011;20635;55.812;37.560;2022-12-10T00:15:35;6.88;;;4.82;;
34369;SDS011;20635;55.812;37.560;2022-12-10T00:18:01;6.00;;;4.03;;
34369;SDS011;20635;55.812;37.560;2022-12-10T00:20:27;6.05;;;4.45;;
34369;SDS011;20635;55.812;37.560;2022-12-10T00:22:53;5.47;;;4.25;;
34369;SDS011;20635;55.812;37.560;2022-12-10T00:25:19;5.10;;;4.00;;
34369;SDS011;20635;55.812;37.560;2022-12-10T00:27:45;5.60;;;4.05;;
34369;SDS011;20635;55.812;37.560;2022-12-10T00:30:11;5.00;;;4.18;;
34369;SDS011;20635;55.812;37.560;2022-12-10T00:32:37;7.03;;;3.95;;
34369;SDS011;20635;55.812;37.560;2022-12-10T00:35:03;6.35;;;4.32;;
34369;SDS011;20635;55.812;37.560;2022-12-10T00:37:29;5.25;;;4.15;;
34369;SDS011;20635;55.812;37.560;2022-12-10T00:39:55;5.65;;;4.10;;
34369;SDS011;20635;55.812;37.560;2022-12-10T00:42:21;4.80;;;3.88;;
34369;SDS011;20635;55.812;37.560;2022-12-10T00:44:47;6.03;;;4.45;;
34369;SDS011;20635;55.812;37.560;2022-12-10T00:47:13;5.50;;;4.03;;
34369;SDS011;20635;55.812;37.560;2022-12-10T00:49:39;4.95;;;3.70;;
34369;SDS011;20635;55.812;37.560;2022-12-10T00:52:04;8.40;;;4.03;;
34369;SDS011;20635;55.812;37.560;2022-12-10T00:54:30;5.20;;;3.70;;
34369;SDS011;20635;55.812;37.560;2022-12-10T00:59:41;4.57;;;3.80;;
34369;SDS011;20635;55.812;37.560;2022-12-10T01:02:08;5.40;;;3.13;;
34369;SDS011;20635;55.812;37.560;2022-12-10T01:04:35;5.10;;;4.00;;
34369;SDS011;20635;55.812;37.560;2022-12-10T01:07:03;4.05;;;3.30;;
34369;SDS011;20635;55.812;37.560;2022-12-10T01:09:33;5.60;;;3.65;;
34369;SDS011;20635;55.812;37.560;2022-12-10T01:12:00;5.93;;;4.13;;
34369;SDS011;20635;55.812;37.560;2022-12-10T01:14:28;3.60;;;3.03;;
34369;SDS011;20635;55.812;37.560;2022-12-10T01:16:59;4.18;;;3.30;;
34369;SDS011;20635;55.812;37.560;2022-12-10T01:19:28;3.75;;;2.90;;
34369;SDS011;20635;55.812;37.560;2022-12-10T01:21:55;4.28;;;3.08;;
34369;SDS011;20635;55.812;37.560;2022-12-10T01:24:25;4.60;;;3.20;;
34369;SDS011;20635;55.812;37.560;2022-12-10T01:26:52;4.55;;;3.30;;
34369;SDS011;20635;55.812;37.560;2022-12-10T01:29:20;4.32;;;3.08;;
34369;SDS011;20635;55.812;37.560;2022-12-10T01:31:46;4.40;;;2.80;;
34369;SDS011;20635;55.812;37.560;2022-12-10T01:34:16;3.30;;;2.90;;
34369;SDS011;20635;55.812;37.560;2022-12-10T01:36:43;4.05;;;3.03;;
34369;SDS011;20635;55.812;37.560;2022-12-10T01:39:12;3.78;;;2.83;;
34369;SDS011;20635;55.812;37.560;2022-12-10T01:41:45;3.42;;;2.80;;
34369;SDS011;20635;55.812;37.560;2022-12-10T01:46:56;5.38;;;3.03;;
34369;SDS011;20635;55.812;37.560;2022-12-10T01:49:27;3.58;;;2.90;;
34369;SDS011;20635;55.812;37.560;2022-12-10T01:51:58;4.05;;;3.10;;
34369;SDS011;20635;55.812;37.560;2022-12-10T01:54:29;3.33;;;2.90;;
34369;SDS011;20635;55.812;37.560;2022-12-10T01:57:07;3.67;;;2.85;;
34369;SDS011;20635;55.812;37.560;2022-12-10T01:59:35;2.80;;;2.38;;
34369;SDS011;20635;55.812;37.560;2022-12-10T02:02:14;3.78;;;2.95;;
34369;SDS011;20635;55.812;37.560;2022-12-10T02:13:38;3.40;;;2.63;;
34369;SDS011;20635;55.812;37.560;2022-12-10T02:16:08;3.22;;;2.83;;
34369;SDS011;20635;55.812;37.560;2022-12-10T02:18:48;3.25;;;2.88;;
34369;SDS011;20635;55.812;37.560;2022-12-10T02:21:21;3.85;;;3.03;;
34369;SDS011;20635;55.812;37.560;2022-12-10T02:23:54;4.45;;;2.10;;
34369;SDS011;20635;55.812;37.560;2022-12-10T02:26:26;3.17;;;2.88;;
34369;SDS011;20635;55.812;37.560;2022-12-10T02:31:38;2.95;;;2.58;;
34369;SDS011;20635;55.812;37.560;2022-12-10T02:36:37;3.17;;;2.70;;
34369;SDS011;20635;55.812;37.560;2022-12-10T02:39:07;3.20;;;2.58;;
34369;SDS011;20635;55.812;37.560;2022-12-10T02:41:48;2.75;;;2.42;;
34369;SDS011;20635;55.812;37.560;2022-12-10T02:44:17;4.03;;;2.83;;
34369;SDS011;20635;55.812;37.560;2022-12-10T02:46:45;3.55;;;2.80;;
34369;SDS011;20635;55.812;37.560;2022-12-10T02:49:15;3.95;;;2.88;;
34369;SDS011;20635;55.812;37.560;2022-12-10T02:51:43;4.40;;;3.38;;
34369;SDS011;20635;55.812;37.560;2022-12-10T03:00:22;2.88;;;2.55;;
34369;SDS011;20635;55.812;37.560;2022-12-10T03:03:46;5.72;;;3.97;;
34369;SDS011;20635;55.812;37.560;2022-12-10T03:06:05;4.30;;;3.10;;
34369;SDS011;20635;55.812;37.560;2022-12-10T03:14:03;4.80;;;3.67;;
34369;SDS011;20635;55.812;37.560;2022-12-10T03:16:39;5.95;;;4.00;;
34369;SDS011;20635;55.812;37.560;2022-12-10T03:19:13;6.10;;;3.65;;
34369;SDS011;20635;55.812;37.560;2022-12-10T03:21:43;6.25;;;4.45;;
34369;SDS011;20635;55.812;37.560;2022-12-10T03:24:11;7.15;;;4.07;;
34369;SDS011;20635;55.812;37.560;2022-12-10T03:26:40;6.97;;;4.18;;
34369;SDS011;20635;55.812;37.560;2022-12-10T03:29:08;7.13;;;4.22;;
34369;SDS011;20635;55.812;37.560;2022-12-10T03:31:38;7.17;;;5.20;;
34369;SDS011;20635;55.812;37.560;2022-12-10T03:34:05;8.15;;;5.00;;
34369;SDS011;20635;55.812;37.560;2022-12-10T03:36:35;6.60;;;4.88;;
34369;SDS011;20635;55.812;37.560;2022-12-10T03:39:03;7.22;;;5.22;;
34369;SDS011;20635;55.812;37.560;2022-12-10T03:41:30;5.97;;;5.05;;
34369;SDS011;20635;55.812;37.560;2022-12-10T03:43:57;8.40;;;5.25;;
34369;SDS011;20635;55.812;37.560;2022-12-10T03:46:25;7.55;;;5.72;;
34369;SDS011;20635;55.812;37.560;2022-12-10T03:48:53;8.10;;;5.97;;
34369;SDS011;20635;55.812;37.560;2022-12-10T03:51:20;8.50;;;6.07;;
34369;SDS011;20635;55.812;37.560;2022-12-10T03:53:46;8.27;;;5.72;;
34369;SDS011;20635;55.812;37.560;2022-12-10T03:56:14;8.23;;;6.05;;
34369;SDS011;20635;55.812;37.560;2022-12-10T03:58:43;10.10;;;6.40;;
34369;SDS011;20635;55.812;37.560;2022-12-10T04:01:09;10.70;;;6.70;;
34369;SDS011;20635;55.812;37.560;2022-12-10T04:03:35;10.43;;;6.78;;
34369;SDS011;20635;55.812;37.560;2022-12-10T04:06:10;10.15;;;6.97;;
34369;SDS011;20635;55.812;37.560;2022-12-10T04:08:38;12.15;;;7.07;;
34369;SDS011;20635;55.812;37.560;2022-12-10T04:11:05;11.20;;;7.50;;
34369;SDS011;20635;55.812;37.560;2022-12-10T04:13:34;12.85;;;7.90;;
34369;SDS011;20635;55.812;37.560;2022-12-10T04:16:20;9.10;;;6.85;;
34369;SDS011;20635;55.812;37.560;2022-12-10T04:18:57;9.63;;;6.82;;
34369;SDS011;20635;55.812;37.560;2022-12-10T04:21:25;12.65;;;7.78;;
34369;SDS011;20635;55.812;37.560;2022-12-10T04:24:11;10.50;;;7.88;;
34369;SDS011;20635;55.812;37.560;2022-12-10T04:26:57;12.15;;;8.48;;
34369;SDS011;20635;55.812;37.560;2022-12-10T04:29:25;11.48;;;7.32;;
34369;SDS011;20635;55.812;37.560;2022-12-10T04:31:53;11.10;;;7.72;;
34369;SDS011;20635;55.812;37.560;2022-12-10T04:34:20;10.73;;;8.18;;
34369;SDS011;20635;55.812;37.560;2022-12-10T04:36:47;9.82;;;7.78;;
34369;SDS011;20635;55.812;37.560;2022-12-10T04:39:13;12.45;;;8.13;;
34369;SDS011;20635;55.812;37.560;2022-12-10T04:41:40;10.63;;;7.75;;
34369;SDS011;20635;55.812;37.560;2022-12-10T04:44:08;10.10;;;7.35;;
34369;SDS011;20635;55.812;37.560;2022-12-10T04:46:34;11.82;;;7.65;;
34369;SDS011;20635;55.812;37.560;2022-12-10T04:49:00;9.77;;;7.97;;
34369;SDS011;20635;55.812;37.560;2022-12-10T04:51:26;11.18;;;8.65;;
34369;SDS011;20635;55.812;37.560;2022-12-10T04:53:52;11.05;;;7.72;;
34369;SDS011;20635;55.812;37.560;2022-12-10T04:56:18;11.00;;;8.57;;
34369;SDS011;20635;55.812;37.560;2022-12-10T04:58:45;11.93;;;8.55;;
34369;SDS011;20635;55.812;37.560;2022-12-10T05:01:11;13.30;;;8.68;;
34369;SDS011;20635;55.812;37.560;2022-12-10T05:03:38;13.30;;;8.25;;
34369;SDS011;20635;55.812;37.560;2022-12-10T05:06:05;10.65;;;8.18;;
34369;SDS011;20635;55.812;37.560;2022-12-10T05:08:33;12.48;;;8.70;;
34369;SDS011;20635;55.812;37.560;2022-12-10T05:11:04;12.73;;;8.57;;
34369;SDS011;20635;55.812;37.560;2022-12-10T05:15:58;11.52;;;8.18;;
34369;SDS011;20635;55.812;37.560;2022-12-10T05:18:27;11.32;;;8.35;;
34369;SDS011;20635;55.812;37.560;2022-12-10T05:20:53;12.13;;;9.05;;
34369;SDS011;20635;55.812;37.560;2022-12-10T05:23:19;11.48;;;8.45;;
34369;SDS011;20635;55.812;37.560;2022-12-10T05:26:00;12.80;;;8.90;;
34369;SDS011;20635;55.812;37.560;2022-12-10T05:28:31;12.10;;;9.05;;
34369;SDS011;20635;55.812;37.560;2022-12-10T05:30:59;14.23;;;8.30;;
34369;SDS011;20635;55.812;37.560;2022-12-10T05:33:26;11.13;;;8.32;;
34369;SDS011;20635;55.812;37.560;2022-12-10T05:35:56;11.50;;;8.13;;
34369;SDS011;20635;55.812;37.560;2022-12-10T05:38:26;10.95;;;8.25;;
34369;SDS011;20635;55.812;37.560;2022-12-10T05:40:53;13.13;;;9.32;;
34369;SDS011;20635;55.812;37.560;2022-12-10T05:43:19;13.63;;;9.32;;
34369;SDS011;20635;55.812;37.560;2022-12-10T05:45:45;11.55;;;8.48;;
34369;SDS011;20635;55.812;37.560;2022-12-10T05:48:13;11.38;;;8.85;;
34369;SDS011;20635;55.812;37.560;2022-12-10T05:50:40;11.95;;;8.90;;
34369;SDS011;20635;55.812;37.560;2022-12-10T05:53:07;11.25;;;8.63;;
34369;SDS011;20635;55.812;37.560;2022-12-10T05:55:32;11.65;;;8.13;;
34369;SDS011;20635;55.812;37.560;2022-12-10T05:57:59;10.48;;;8.05;;
34369;SDS011;20635;55.812;37.560;2022-12-10T06:00:28;11.88;;;8.15;;
34369;SDS011;20635;55.812;37.560;2022-12-10T06:02:54;9.50;;;7.68;;
34369;SDS011;20635;55.812;37.560;2022-12-10T06:05:21;11.30;;;8.15;;
34369;SDS011;20635;55.812;37.560;2022-12-10T06:07:46;11.07;;;8.55;;
34369;SDS011;20635;55.812;37.560;2022-12-10T06:10:13;10.38;;;8.18;;
34369;SDS011;20635;55.812;37.560;2022-12-10T06:12:39;11.75;;;7.75;;
34369;SDS011;20635;55.812;37.560;2022-12-10T06:15:05;9.93;;;7.20;;
34369;SDS011;20635;55.812;37.560;2022-12-10T06:17:31;12.45;;;8.02;;
34369;SDS011;20635;55.812;37.560;2022-12-10T06:19:57;10.05;;;8.23;;
34369;SDS011;20635;55.812;37.560;2022-12-10T06:22:24;10.00;;;7.72;;
34369;SDS011;20635;55.812;37.560;2022-12-10T06:24:50;12.55;;;8.07;;
34369;SDS011;20635;55.812;37.560;2022-12-10T06:27:15;11.60;;;7.95;;
34369;SDS011;20635;55.812;37.560;2022-12-10T06:29:41;9.60;;;7.70;;
34369;SDS011;20635;55.812;37.560;2022-12-10T06:32:07;9.27;;;7.72;;
34369;SDS011;20635;55.812;37.560;2022-12-10T06:34:33;9.73;;;7.53;;
34369;SDS011;20635;55.812;37.560;2022-12-10T06:36:59;14.50;;;7.65;;
34369;SDS011;20635;55.812;37.560;2022-12-10T06:39:25;12.80;;;7.68;;
34369;SDS011;20635;55.812;37.560;2022-12-10T06:41:51;10.43;;;7.47;;
34369;SDS011;20635;55.812;37.560;2022-12-10T06:44:17;12.35;;;6.95;;
34369;SDS011;20635;55.812;37.560;2022-12-10T06:46:42;8.85;;;6.90;;
34369;SDS011;20635;55.812;37.560;2022-12-10T06:49:08;9.43;;;7.35;;
34369;SDS011;20635;55.812;37.560;2022-12-10T06:51:35;8.63;;;6.25;;
34369;SDS011;20635;55.812;37.560;2022-12-10T06:54:04;9.25;;;6.57;;
34369;SDS011;20635;55.812;37.560;2022-12-10T06:56:30;7.55;;;6.35;;
34369;SDS011;20635;55.812;37.560;2022-12-10T06:58:56;7.68;;;5.90;;
34369;SDS011;20635;55.812;37.560;2022-12-10T07:01:23;6.97;;;5.70;;
34369;SDS011;20635;55.812;37.560;2022-12-10T07:03:53;7.93;;;5.43;;
34369;SDS011;20635;55.812;37.560;2022-12-10T07:06:21;7.82;;;6.18;;
34369;SDS011;20635;55.812;37.560;2022-12-10T07:08:49;8.20;;;6.35;;
34369;SDS011;20635;55.812;37.560;2022-12-10T07:11:19;7.75;;;5.85;;
34369;SDS011;20635;55.812;37.560;2022-12-10T07:13:47;8.25;;;6.20;;
34369;SDS011;20635;55.812;37.560;2022-12-10T07:18:50;8.25;;;6.28;;
34369;SDS011;20635;55.812;37.560;2022-12-10T07:21:19;7.85;;;6.30;;
34369;SDS011;20635;55.812;37.560;2022-12-10T07:23:50;7.07;;;5.70;;
34369;SDS011;20635;55.812;37.560;2022-12-10T07:26:19;6.82;;;5.60;;
34369;SDS011;20635;55.812;37.560;2022-12-10T07:28:45;6.65;;;5.63;;
34369;SDS011;20635;55.812;37.560;2022-12-10T07:31:11;7.40;;;6.20;;
34369;SDS011;20635;55.812;37.560;2022-12-10T07:33:37;7.60;;;6.05;;
34369;SDS011;20635;55.812;37.560;2022-12-10T07:36:07;7.00;;;5.80;;
34369;SDS011;20635;55.812;37.560;2022-12-10T07:38:35;8.90;;;5.88;;
34369;SDS011;20635;55.812;37.560;2022-12-10T07:41:07;8.32;;;5.95;;
34369;SDS011;20635;55.812;37.560;2022-12-10T07:43:39;7.70;;;5.90;;
34369;SDS011;20635;55.812;37.560;2022-12-10T07:46:08;7.47;;;5.53;;
34369;SDS011;20635;55.812;37.560;2022-12-10T07:48:36;9.10;;;5.70;;
34369;SDS011;20635;55.812;37.560;2022-12-10T07:51:04;6.93;;;5.30;;
34369;SDS011;20635;55.812;37.560;2022-12-10T07:53:30;26.33;;;6.15;;
34369;SDS011;20635;55.812;37.560;2022-12-10T07:55:56;9.15;;;6.05;;
34369;SDS011;20635;55.812;37.560;2022-12-10T07:58:22;8.52;;;6.05;;
34369;SDS011;20635;55.812;37.560;2022-12-10T08:00:48;7.35;;;5.38;;
34369;SDS011;20635;55.812;37.560;2022-12-10T08:03:14;8.70;;;5.55;;
34369;SDS011;20635;55.812;37.560;2022-12-10T08:05:40;10.23;;;7.25;;
34369;SDS011;20635;55.812;37.560;2022-12-10T08:08:06;9.50;;;6.53;;
34369;SDS011;20635;55.812;37.560;2022-12-10T08:10:36;8.18;;;5.95;;
34369;SDS011;20635;55.812;37.560;2022-12-10T08:13:03;9.50;;;6.10;;
34369;SDS011;20635;55.812;37.560;2022-12-10T08:15:30;7.78;;;6.25;;
34369;SDS011;20635;55.812;37.560;2022-12-10T08:17:56;9.40;;;6.07;;
34369;SDS011;20635;55.812;37.560;2022-12-10T08:20:23;7.28;;;5.85;;
34369;SDS011;20635;55.812;37.560;2022-12-10T08:22:49;7.65;;;5.78;;
34369;SDS011;20635;55.812;37.560;2022-12-10T08:25:16;6.97;;;5.40;;
34369;SDS011;20635;55.812;37.560;2022-12-10T08:27:42;7.47;;;5.63;;
34369;SDS011;20635;55.812;37.560;2022-12-10T08:30:08;8.30;;;5.28;;
34369;SDS011;20635;55.812;37.560;2022-12-10T08:32:34;7.90;;;5.60;;
34369;SDS011;20635;55.812;37.560;2022-12-10T08:35:00;7.63;;;5.05;;
34369;SDS011;20635;55.812;37.560;2022-12-10T08:37:26;6.55;;;5.60;;
34369;SDS011;20635;55.812;37.560;2022-12-10T08:39:52;6.80;;;5.63;;
34369;SDS011;20635;55.812;37.560;2022-12-10T08:42:18;6.88;;;5.20;;
34369;SDS011;20635;55.812;37.560;2022-12-10T08:44:43;7.28;;;5.82;;
34369;SDS011;20635;55.812;37.560;2022-12-10T08:47:09;7.10;;;5.53;;
34369;SDS011;20635;55.812;37.560;2022-12-10T08:49:35;7.80;;;5.53;;
34369;SDS011;20635;55.812;37.560;2022-12-10T08:52:01;7.88;;;5.50;;
34369;SDS011;20635;55.812;37.560;2022-12-10T08:54:27;7.40;;;5.65;;
34369;SDS011;20635;55.812;37.560;2022-12-10T08:56:53;5.57;;;4.93;;
34369;SDS011;20635;55.812;37.560;2022-12-10T08:59:19;6.68;;;5.35;;
34369;SDS011;20635;55.812;37.560;2022-12-10T09:01:45;6.72;;;5.18;;
34369;SDS011;20635;55.812;37.560;2022-12-10T09:04:11;7.15;;;5.40;;
34369;SDS011;20635;55.812;37.560;2022-12-10T09:06:38;6.63;;;5.00;;
34369;SDS011;20635;55.812;37.560;2022-12-10T09:09:03;7.68;;;5.07;;
34369;SDS011;20635;55.812;37.560;2022-12-10T09:11:31;6.53;;;5.22;;
34369;SDS011;20635;55.812;37.560;2022-12-10T09:13:58;7.15;;;5.40;;
34369;SDS011;20635;55.812;37.560;2022-12-10T09:16:28;6.85;;;5.50;;
34369;SDS011;20635;55.812;37.560;2022-12-10T09:18:56;8.57;;;5.97;;
34369;SDS011;20635;55.812;37.560;2022-12-10T09:21:23;6.70;;;5.00;;
34369;SDS011;20635;55.812;37.560;2022-12-10T09:23:49;6.80;;;5.43;;
34369;SDS011;20635;55.812;37.560;2022-12-10T09:26:16;7.03;;;5.53;;
34369;SDS011;20635;55.812;37.560;2022-12-10T09:28:42;8.38;;;5.85;;
34369;SDS011;20635;55.812;37.560;2022-12-10T09:31:10;6.38;;;5.25;;
34369;SDS011;20635;55.812;37.560;2022-12-10T09:33:38;7.45;;;5.55;;
34369;SDS011;20635;55.812;37.560;2022-12-10T09:36:04;6.13;;;4.93;;
34369;SDS011;20635;55.812;37.560;2022-12-10T09:38:35;6.80;;;5.15;;
34369;SDS011;20635;55.812;37.560;2022-12-10T09:41:04;6.78;;;5.25;;
34369;SDS011;20635;55.812;37.560;2022-12-10T09:43:48;6.80;;;5.38;;
34369;SDS011;20635;55.812;37.560;2022-12-10T09:46:26;9.38;;;5.75;;
34369;SDS011;20635;55.812;37.560;2022-12-10T09:51:27;7.93;;;5.20;;
34369;SDS011;20635;55.812;37.560;2022-12-10T09:53:57;6.35;;;5.13;;
34369;SDS011;20635;55.812;37.560;2022-12-10T09:56:26;6.88;;;5.30;;
34369;SDS011;20635;55.812;37.560;2022-12-10T09:59:08;7.78;;;5.70;;
34369;SDS011;20635;55.812;37.560;2022-12-10T10:01:43;7.25;;;5.13;;
34369;SDS011;20635;55.812;37.560;2022-12-10T10:04:09;5.68;;;4.85;;
34369;SDS011;20635;55.812;37.560;2022-12-10T10:06:35;6.60;;;5.57;;
34369;SDS011;20635;55.812;37.560;2022-12-10T10:09:02;7.18;;;5.68;;
34369;SDS011;20635;55.812;37.560;2022-12-10T10:11:31;7.88;;;5.53;;
34369;SDS011;20635;55.812;37.560;2022-12-10T10:14:05;9.75;;;5.22;;
34369;SDS011;20635;55.812;37.560;2022-12-10T10:16:40;6.82;;;5.50;;
34369;SDS011;20635;55.812;37.560;2022-12-10T10:19:14;8.52;;;5.82;;
34369;SDS011;20635;55.812;37.560;2022-12-10T10:21:44;7.15;;;5.43;;
34369;SDS011;20635;55.812;37.560;2022-12-10T10:24:16;6.93;;;5.25;;
34369;SDS011;20635;55.812;37.560;2022-12-10T10:26:48;7.30;;;5.47;;
34369;SDS011;20635;55.812;37.560;2022-12-10T10:29:18;8.23;;;6.10;;
34369;SDS011;20635;55.812;37.560;2022-12-10T10:31:46;7.07;;;5.00;;
34369;SDS011;20635;55.812;37.560;2022-12-10T10:34:22;8.05;;;6.03;;
34369;SDS011;20635;55.812;37.560;2022-12-10T10:36:55;7.28;;;5.65;;
34369;SDS011;20635;55.812;37.560;2022-12-10T10:39:26;7.18;;;5.30;;
34369;SDS011;20635;55.812;37.560;2022-12-10T10:41:54;9.02;;;5.80;;
34369;SDS011;20635;55.812;37.560;2022-12-10T10:44:24;8.82;;;5.72;;
34369;SDS011;20635;55.812;37.560;2022-12-10T10:46:53;7.90;;;5.55;;
34369;SDS011;20635;55.812;37.560;2022-12-10T10:51:53;9.65;;;6.47;;
34369;SDS011;20635;55.812;37.560;2022-12-10T10:54:32;8.20;;;5.85;;
34369;SDS011;20635;55.812;37.560;2022-12-10T10:57:09;7.82;;;5.78;;
34369;SDS011;20635;55.812;37.560;2022-12-10T10:59:38;6.78;;;5.40;;
34369;SDS011;20635;55.812;37.560;2022-12-10T11:02:15;9.05;;;5.80;;
34369;SDS011;20635;55.812;37.560;2022-12-10T11:04:45;8.93;;;6.40;;
34369;SDS011;20635;55.812;37.560;2022-12-10T11:07:18;7.25;;;5.55;;
34369;SDS011;20635;55.812;37.560;2022-12-10T11:09:59;9.15;;;6.55;;
34369;SDS011;20635;55.812;37.560;2022-12-10T11:17:51;8.40;;;5.82;;
34369;SDS011;20635;55.812;37.560;2022-12-10T11:20:21;6.82;;;5.85;;
34369;SDS011;20635;55.812;37.560;2022-12-10T11:22:49;9.13;;;6.20;;
34369;SDS011;20635;55.812;37.560;2022-12-10T11:36:59;7.22;;;5.35;;
34369;SDS011;20635;55.812;37.560;2022-12-10T11:44:43;8.07;;;5.90;;
34369;SDS011;20635;55.812;37.560;2022-12-10T11:50:16;9.00;;;6.15;;
34369;SDS011;20635;55.812;37.560;2022-12-10T11:52:48;8.15;;;5.53;;
34369;SDS011;20635;55.812;37.560;2022-12-10T11:55:39;8.32;;;5.60;;
34369;SDS011;20635;55.812;37.560;2022-12-10T12:00:58;8.38;;;6.10;;
34369;SDS011;20635;55.812;37.560;2022-12-10T12:03:32;9.68;;;5.85;;
34369;SDS011;20635;55.812;37.560;2022-12-10T12:14:19;9.60;;;5.45;;
34369;SDS011;20635;55.812;37.560;2022-12-10T12:19:37;9.32;;;6.57;;
34369;SDS011;20635;55.812;37.560;2022-12-10T12:22:16;8.20;;;6.00;;
34369;SDS011;20635;55.812;37.560;2022-12-10T12:24:48;11.52;;;6.78;;
34369;SDS011;20635;55.812;37.560;2022-12-10T12:27:31;9.43;;;6.32;;
34369;SDS011;20635;55.812;37.560;2022-12-10T12:30:04;7.65;;;5.65;;
34369;SDS011;20635;55.812;37.560;2022-12-10T12:32:38;7.93;;;5.97;;
34369;SDS011;20635;55.812;37.560;2022-12-10T12:37:57;9.50;;;5.95;;
34369;SDS011;20635;55.812;37.560;2022-12-10T12:45:49;8.77;;;6.05;;
34369;SDS011;20635;55.812;37.560;2022-12-10T12:48:22;9.07;;;5.78;;
34369;SDS011;20635;55.812;37.560;2022-12-10T12:50:59;9.23;;;6.15;;
34369;SDS011;20635;55.812;37.560;2022-12-10T12:53:28;9.07;;;6.05;;
34369;SDS011;20635;55.812;37.560;2022-12-10T12:58:45;9.55;;;6.50;;
34369;SDS011;20635;55.812;37.560;2022-12-10T13:03:54;7.32;;;5.43;;
34369;SDS011;20635;55.812;37.560;2022-12-10T13:11:30;7.85;;;5.63;;
34369;SDS011;20635;55.812;37.560;2022-12-10T13:19:28;8.73;;;6.13;;
34369;SDS011;20635;55.812;37.560;2022-12-10T13:32:41;7.85;;;5.55;;
34369;SDS011;20635;55.812;37.560;2022-12-10T13:40:24;8.43;;;5.55;;
34369;SDS011;20635;55.812;37.560;2022-12-10T13:43:29;8.07;;;5.72;;
34369;SDS011;20635;55.812;37.560;2022-12-10T13:49:00;7.05;;;5.65;;
34369;SDS011;20635;55.812;37.560;2022-12-10T13:51:31;8.50;;;6.10;;
34369;SDS011;20635;55.812;37.560;2022-12-10T14:04:50;7.43;;;5.65;;
34369;SDS011;20635;55.812;37.560;2022-12-10T14:07:22;7.50;;;5.45;;
34369;SDS011;20635;55.812;37.560;2022-12-10T14:09:56;7.47;;;5.65;;
34369;SDS011;20635;55.812;37.560;2022-12-10T14:12:35;7.80;;;5.43;;
34369;SDS011;20635;55.812;37.560;2022-12-10T14:15:08;6.88;;;5.53;;
34369;SDS011;20635;55.812;37.560;2022-12-10T14:17:43;8.25;;;5.45;;
34369;SDS011;20635;55.812;37.560;2022-12-10T14:20:17;6.47;;;5.45;;
34369;SDS011;20635;55.812;37.560;2022-12-10T14:22:55;6.25;;;5.10;;
34369;SDS011;20635;55.812;37.560;2022-12-10T14:25:45;8.25;;;5.80;;
34369;SDS011;20635;55.812;37.560;2022-12-10T14:28:13;6.45;;;4.90;;
34369;SDS011;20635;55.812;37.560;2022-12-10T14:30:42;6.72;;;5.50;;
34369;SDS011;20635;55.812;37.560;2022-12-10T14:33:14;6.22;;;5.13;;
34369;SDS011;20635;55.812;37.560;2022-12-10T14:35:46;6.22;;;5.22;;
34369;SDS011;20635;55.812;37.560;2022-12-10T14:38:21;5.80;;;5.10;;
34369;SDS011;20635;55.812;37.560;2022-12-10T14:40:58;6.60;;;5.15;;
34369;SDS011;20635;55.812;37.560;2022-12-10T14:43:35;6.90;;;5.50;;
34369;SDS011;20635;55.812;37.560;2022-12-10T14:46:04;7.15;;;5.20;;
34369;SDS011;20635;55.812;37.560;2022-12-10T14:48:38;6.40;;;5.07;;
34369;SDS011;20635;55.812;37.560;2022-12-10T14:51:10;5.47;;;4.50;;
34369;SDS011;20635;55.812;37.560;2022-12-10T14:53:40;6.55;;;5.10;;
34369;SDS011;20635;55.812;37.560;2022-12-10T14:56:07;6.75;;;5.18;;
34369;SDS011;20635;55.812;37.560;2022-12-10T14:58:39;5.70;;;4.78;;
34369;SDS011;20635;55.812;37.560;2022-12-10T15:04:12;6.05;;;4.60;;
34369;SDS011;20635;55.812;37.560;2022-12-10T15:06:41;6.30;;;5.05;;
34369;SDS011;20635;55.812;37.560;2022-12-10T15:09:16;6.90;;;4.80;;
34369;SDS011;20635;55.812;37.560;2022-12-10T15:11:51;5.93;;;4.20;;
34369;SDS011;20635;55.812;37.560;2022-12-10T15:14:19;7.60;;;4.40;;
34369;SDS011;20635;55.812;37.560;2022-12-10T15:16:46;5.60;;;4.60;;
34369;SDS011;20635;55.812;37.560;2022-12-10T15:19:20;7.05;;;5.20;;
34369;SDS011;20635;55.812;37.560;2022-12-10T15:21:51;6.60;;;5.10;;
34369;SDS011;20635;55.812;37.560;2022-12-10T15:24:32;6.35;;;5.20;;
34369;SDS011;20635;55.812;37.560;2022-12-10T15:27:02;5.88;;;4.55;;
34369;SDS011;20635;55.812;37.560;2022-12-10T15:29:39;5.03;;;4.43;;
34369;SDS011;20635;55.812;37.560;2022-12-10T15:32:38;6.00;;;4.32;;
34369;SDS011;20635;55.812;37.560;2022-12-10T15:35:01;5.72;;;4.43;;
34369;SDS011;20635;55.812;37.560;2022-12-10T15:37:33;6.60;;;4.90;;
34369;SDS011;20635;55.812;37.560;2022-12-10T15:40:03;6.32;;;4.78;;
34369;SDS011;20635;55.812;37.560;2022-12-10T15:42:36;6.22;;;4.57;;
34369;SDS011;20635;55.812;37.560;2022-12-10T15:45:26;6.82;;;4.90;;
34369;SDS011;20635;55.812;37.560;2022-12-10T15:48:03;7.70;;;4.53;;
34369;SDS011;20635;55.812;37.560;2022-12-10T15:50:36;6.72;;;4.57;;
34369;SDS011;20635;55.812;37.560;2022-12-10T15:53:03;5.88;;;4.82;;
34369;SDS011;20635;55.812;37.560;2022-12-10T15:55:28;6.03;;;4.65;;
34369;SDS011;20635;55.812;37.560;2022-12-10T15:57:54;9.45;;;4.70;;
34369;SDS011;20635;55.812;37.560;2022-12-10T16:00:21;6.70;;;4.38;;
34369;SDS011;20635;55.812;37.560;2022-12-10T16:07:47;5.68;;;4.40;;
34369;SDS011;20635;55.812;37.560;2022-12-10T16:10:15;5.03;;;4.28;;
34369;SDS011;20635;55.812;37.560;2022-12-10T16:12:45;5.50;;;4.53;;
34369;SDS011;20635;55.812;37.560;2022-12-10T16:15:18;4.38;;;3.83;;
34369;SDS011;20635;55.812;37.560;2022-12-10T16:17:46;5.00;;;4.50;;
34369;SDS011;20635;55.812;37.560;2022-12-10T16:22:53;5.25;;;4.47;;
34369;SDS011;20635;55.812;37.560;2022-12-10T16:25:19;5.30;;;4.05;;
34369;SDS011;20635;55.812;37.560;2022-12-10T16:27:46;4.47;;;4.00;;
34369;SDS011;20635;55.812;37.560;2022-12-10T16:30:20;5.57;;;4.22;;
34369;SDS011;20635;55.812;37.560;2022-12-10T16:32:48;5.90;;;3.72;;
34369;SDS011;20635;55.812;37.560;2022-12-10T16:35:15;4.97;;;3.80;;
34369;SDS011;20635;55.812;37.560;2022-12-10T16:37:46;4.78;;;4.13;;
34369;SDS011;20635;55.812;37.560;2022-12-10T16:40:20;5.93;;;4.20;;
34369;SDS011;20635;55.812;37.560;2022-12-10T16:42:48;8.02;;;4.65;;
34369;SDS011;20635;55.812;37.560;2022-12-10T16:45:34;6.63;;;4.55;;
34369;SDS011;20635;55.812;37.560;2022-12-10T16:48:02;7.53;;;4.63;;
34369;SDS011;20635;55.812;37.560;2022-12-10T16:50:29;6.32;;;4.38;;
34369;SDS011;20635;55.812;37.560;2022-12-10T16:52:55;5.85;;;3.85;;
34369;SDS011;20635;55.812;37.560;2022-12-10T16:55:24;6.95;;;4.68;;
34369;SDS011;20635;55.812;37.560;2022-12-10T16:57:51;5.63;;;4.45;;
34369;SDS011;20635;55.812;37.560;2022-12-10T17:00:19;7.65;;;4.88;;
34369;SDS011;20635;55.812;37.560;2022-12-10T17:02:48;7.18;;;4.15;;
34369;SDS011;20635;55.812;37.560;2022-12-10T17:05:16;7.15;;;4.28;;
34369;SDS011;20635;55.812;37.560;2022-12-10T17:08:00;6.03;;;4.25;;
34369;SDS011;20635;55.812;37.560;2022-12-10T17:10:26;5.28;;;3.70;;
34369;SDS011;20635;55.812;37.560;2022-12-10T17:13:12;5.60;;;3.88;;